Time;durP1;ratioP1;P1;durP2;ratioP2;P2;SDS_P1;SDS_P2;PMS_P1;PMS_P2;Temp;Humidity;BMP_temperature;BMP_pressure;BME280_temperature;BME280_humidity;BME280_pressure;Samples;Min_cycle;Max_cycle;Signal;HPM_P1;HPM_P2
2022/08/30 00:02:33;;;;;;;10.68;6.65;;;16.70;99.90;;;;;;5053961;28;20214;-70
2022/08/30 00:05:03;;;;;;;9.90;6.28;;;16.70;99.90;;;;;;5056366;28;20210;-67
2022/08/30 00:07:31;;;;;;;10.45;6.80;;;16.70;99.90;;;;;;5056232;28;20558;-67
2022/08/30 00:10:01;;;;;;;8.88;6.80;;;16.70;99.90;;;;;;5055312;28;20211;-67
2022/08/30 00:12:31;;;;;;;6.97;6.15;;;16.60;99.90;;;;;;5056090;28;20223;-68
2022/08/30 00:15:00;;;;;;;10.52;6.90;;;16.60;99.90;;;;;;5053774;28;20693;-66
2022/08/30 00:17:29;;;;;;;9.30;7.05;;;16.60;99.90;;;;;;5054496;28;20667;-66
2022/08/30 00:19:58;;;;;;;9.90;6.50;;;16.60;99.90;;;;;;5055956;28;20203;-67
2022/08/30 00:22:26;;;;;;;9.85;6.50;;;16.60;99.90;;;;;;5054257;28;20698;-67
2022/08/30 00:24:55;;;;;;;8.23;6.50;;;16.60;99.90;;;;;;5055843;28;20199;-68
2022/08/30 00:27:25;;;;;;;7.63;6.25;;;16.70;99.90;;;;;;5055662;28;20208;-65
2022/08/30 00:29:54;;;;;;;7.65;6.50;;;16.70;99.90;;;;;;5055754;28;20192;-68
2022/08/30 00:32:23;;;;;;;7.85;6.57;;;16.70;99.90;;;;;;5054305;28;20242;-66
2022/08/30 00:34:54;;;;;;;9.70;6.18;;;16.70;99.90;;;;;;5054775;28;20584;-67
2022/08/30 00:37:23;;;;;;;7.95;6.47;;;16.70;99.90;;;;;;5055644;28;20195;-64
2022/08/30 00:39:52;;;;;;;8.20;5.72;;;16.60;99.90;;;;;;5053465;28;20576;-66
2022/08/30 00:42:21;;;;;;;8.23;6.20;;;16.60;99.90;;;;;;5055045;28;20566;-67
2022/08/30 00:44:52;;;;;;;7.95;6.35;;;16.60;99.90;;;;;;5054731;28;20692;-67
2022/08/30 00:47:21;;;;;;;8.40;6.28;;;16.70;99.90;;;;;;5055431;28;20211;-66
2022/08/30 00:49:51;;;;;;;9.98;6.80;;;16.60;99.90;;;;;;5054824;28;20207;-68
2022/08/30 00:52:22;;;;;;;9.25;6.53;;;16.50;99.90;;;;;;5056463;28;20694;-68
2022/08/30 00:54:52;;;;;;;9.70;7.35;;;16.50;99.90;;;;;;5054824;28;20584;-67
2022/08/30 00:57:20;;;;;;;9.82;8.80;;;16.50;99.90;;;;;;5055324;28;20196;-68
2022/08/30 00:59:51;;;;;;;18.73;16.85;;;16.50;99.90;;;;;;5055275;28;20196;-66
2022/08/30 01:02:22;;;;;;;15.77;13.52;;;16.50;99.90;;;;;;5053920;28;20223;-66
2022/08/30 01:04:54;;;;;;;15.07;9.70;;;16.40;99.90;;;;;;5055136;28;20192;-65
2022/08/30 01:07:23;;;;;;;13.63;9.27;;;16.40;99.90;;;;;;5055061;28;20196;-66
2022/08/30 01:09:52;;;;;;;9.70;7.90;;;16.40;99.90;;;;;;5054267;28;20210;-66
2022/08/30 01:12:22;;;;;;;11.95;7.88;;;16.40;99.90;;;;;;5054975;28;20222;-65
2022/08/30 01:14:52;;;;;;;9.95;7.68;;;16.40;99.90;;;;;;5054798;28;20224;-66
2022/08/30 01:17:21;;;;;;;10.93;7.43;;;16.40;99.90;;;;;;5054226;28;20207;-66
2022/08/30 01:19:55;;;;;;;8.30;6.47;;;16.40;99.90;;;;;;5054928;28;20202;-65
2022/08/30 01:22:30;;;;;;;13.07;8.68;;;16.30;99.90;;;;;;5054738;28;20216;-67
2022/08/30 01:25:01;;;;;;;17.55;12.05;;;16.30;99.90;;;;;;5053853;28;20658;-67
2022/08/30 01:27:32;;;;;;;19.85;14.68;;;16.30;99.90;;;;;;5057633;28;20211;-67
2022/08/30 01:30:02;;;;;;;15.57;11.07;;;16.20;99.90;;;;;;5054619;28;20196;-67
2022/08/30 01:32:31;;;;;;;14.75;11.48;;;16.20;99.90;;;;;;5054551;28;20200;-67
2022/08/30 01:35:00;;;;;;;10.60;8.57;;;16.20;99.90;;;;;;5053062;28;20694;-68
2022/08/30 01:37:32;;;;;;;11.15;8.65;;;16.20;99.90;;;;;;5054450;28;20198;-64
2022/08/30 01:40:03;;;;;;;9.68;7.53;;;16.20;99.90;;;;;;5052371;28;20210;-66
2022/08/30 01:42:32;;;;;;;9.77;6.95;;;16.10;99.90;;;;;;5057176;28;20199;-66
2022/08/30 01:45:01;;;;;;;9.70;7.03;;;16.10;99.90;;;;;;5056884;28;20211;-66
2022/08/30 01:47:30;;;;;;;7.65;6.63;;;16.10;99.90;;;;;;5054240;28;20200;-66
2022/08/30 01:49:58;;;;;;;8.35;6.28;;;16.00;99.90;;;;;;5054811;28;20203;-66
2022/08/30 01:52:27;;;;;;;9.98;6.70;;;16.10;99.90;;;;;;5054080;28;20597;-65
2022/08/30 01:54:56;;;;;;;9.52;6.40;;;16.00;99.90;;;;;;5053350;28;20226;-66
2022/08/30 01:57:27;;;;;;;9.10;6.47;;;16.00;99.90;;;;;;5054104;28;20200;-67
2022/08/30 01:59:55;;;;;;;9.23;6.57;;;16.00;99.90;;;;;;5052584;28;20270;-67
2022/08/30 02:02:27;;;;;;;10.48;6.60;;;15.90;99.90;;;;;;5053919;28;20231;-67
2022/08/30 02:04:56;;;;;;;10.60;6.72;;;16.00;99.90;;;;;;5053879;28;20204;-66
2022/08/30 02:07:26;;;;;;;9.00;6.72;;;15.90;99.90;;;;;;5053902;28;20211;-68
2022/08/30 02:09:55;;;;;;;9.07;6.50;;;15.80;99.90;;;;;;5052781;28;20541;-67
2022/08/30 02:12:26;;;;;;;8.48;6.50;;;15.80;99.90;;;;;;5053171;28;20234;-66
2022/08/30 02:14:55;;;;;;;9.70;6.63;;;15.80;99.90;;;;;;5053440;28;20609;-66
2022/08/30 02:17:24;;;;;;;9.85;6.72;;;15.80;99.90;;;;;;5053998;28;20200;-66
2022/08/30 02:19:53;;;;;;;9.02;6.85;;;15.80;99.90;;;;;;5053301;28;20204;-66
2022/08/30 02:22:22;;;;;;;7.97;6.60;;;15.70;99.90;;;;;;5052208;28;20220;-64
2022/08/30 02:24:50;;;;;;;9.23;6.30;;;15.70;99.90;;;;;;5053826;28;20203;-67
2022/08/30 02:27:19;;;;;;;10.32;6.70;;;15.70;99.90;;;;;;5053729;28;20210;-66
2022/08/30 02:29:49;;;;;;;10.60;6.50;;;15.70;99.90;;;;;;5053431;28;20200;-68
2022/08/30 02:32:18;;;;;;;8.57;6.38;;;15.70;99.90;;;;;;5052482;28;20694;-66
2022/08/30 02:34:47;;;;;;;8.02;5.95;;;15.70;99.90;;;;;;5053793;28;20199;-67
2022/08/30 02:37:19;;;;;;;8.32;6.03;;;15.60;99.90;;;;;;5072334;28;20238;-66
2022/08/30 02:39:47;;;;;;;10.18;6.43;;;15.60;99.90;;;;;;5050657;28;20203;-67
2022/08/30 02:42:16;;;;;;;9.25;6.57;;;15.70;99.90;;;;;;5051441;28;20223;-67
2022/08/30 02:44:45;;;;;;;8.88;6.60;;;15.60;99.90;;;;;;5051519;28;20215;-67
2022/08/30 02:47:15;;;;;;;11.52;6.68;;;15.60;99.90;;;;;;5052548;28;20204;-68
2022/08/30 02:49:44;;;;;;;8.52;6.40;;;15.60;99.90;;;;;;5053771;28;20196;-67
2022/08/30 02:52:13;;;;;;;8.98;6.55;;;15.60;99.90;;;;;;5054031;28;20223;-66
2022/08/30 02:54:41;;;;;;;8.05;6.22;;;15.60;99.90;;;;;;5052349;28;20203;-65
2022/08/30 02:57:12;;;;;;;8.60;6.68;;;15.60;99.90;;;;;;5052196;28;20223;-65
2022/08/30 02:59:48;;;;;;;7.93;6.40;;;15.60;99.90;;;;;;5053178;28;20230;-65
2022/08/30 03:02:18;;;;;;;7.07;5.65;;;15.70;99.90;;;;;;5051994;28;20231;-65
2022/08/30 03:04:47;;;;;;;9.07;6.05;;;15.60;99.90;;;;;;5052449;28;20219;-67
2022/08/30 03:07:16;;;;;;;8.45;6.35;;;15.70;99.90;;;;;;5052830;28;20207;-67
2022/08/30 03:09:45;;;;;;;10.25;6.70;;;15.70;99.90;;;;;;5053042;28;20558;-67
2022/08/30 03:12:14;;;;;;;7.72;6.50;;;15.70;99.90;;;;;;5052757;28;20690;-67
2022/08/30 03:14:43;;;;;;;7.53;6.03;;;15.60;99.90;;;;;;5052666;28;20204;-68
2022/08/30 03:17:12;;;;;;;9.18;6.55;;;15.50;99.90;;;;;;5051753;28;20223;-66
2022/08/30 03:19:45;;;;;;;8.68;6.78;;;15.50;99.90;;;;;;5053079;28;20207;-67
2022/08/30 03:22:14;;;;;;;10.57;6.85;;;15.60;99.90;;;;;;5051461;28;20219;-66
2022/08/30 03:24:44;;;;;;;8.13;6.32;;;15.50;99.90;;;;;;5053039;28;20673;-65
2022/08/30 03:27:13;;;;;;;11.93;7.47;;;15.50;99.90;;;;;;5051759;28;20794;-66
2022/08/30 03:29:42;;;;;;;10.35;6.18;;;15.50;99.90;;;;;;5051275;28;20552;-67
2022/08/30 03:32:10;;;;;;;9.65;6.35;;;15.50;99.90;;;;;;5051573;28;20602;-69
2022/08/30 03:34:39;;;;;;;8.43;6.30;;;15.50;99.90;;;;;;5051885;28;20593;-69
2022/08/30 03:37:09;;;;;;;9.57;5.93;;;15.40;99.90;;;;;;5052513;28;20232;-65
2022/08/30 03:39:38;;;;;;;10.30;6.95;;;15.40;99.90;;;;;;5050642;28;20206;-67
2022/08/30 03:42:07;;;;;;;9.18;6.07;;;15.40;99.90;;;;;;5052328;28;20212;-66
2022/08/30 03:44:36;;;;;;;8.15;6.32;;;15.40;99.90;;;;;;5051702;28;20555;-67
2022/08/30 03:47:07;;;;;;;7.68;6.03;;;15.40;99.90;;;;;;5051085;28;20214;-69
2022/08/30 03:49:36;;;;;;;8.30;6.40;;;15.40;99.90;;;;;;5052341;28;20191;-67
2022/08/30 03:52:05;;;;;;;10.10;6.57;;;15.30;99.90;;;;;;5051644;28;20204;-67
2022/08/30 03:54:35;;;;;;;8.18;6.47;;;15.30;99.90;;;;;;5052084;28;20208;-66
2022/08/30 03:57:05;;;;;;;8.30;6.13;;;15.20;99.90;;;;;;5051647;28;20223;-68
2022/08/30 03:59:34;;;;;;;7.25;5.95;;;15.20;99.90;;;;;;5052185;28;20560;-67
2022/08/30 04:02:03;;;;;;;7.57;6.45;;;15.20;99.90;;;;;;5051413;28;20211;-69
2022/08/30 04:04:32;;;;;;;9.40;6.50;;;15.20;99.90;;;;;;5050689;28;20194;-67
2022/08/30 04:07:01;;;;;;;8.85;5.85;;;15.10;99.90;;;;;;5051423;28;20195;-66
2022/08/30 04:09:30;;;;;;;9.27;6.05;;;15.00;99.90;;;;;;5052253;28;20191;-65
2022/08/30 04:12:00;;;;;;;7.07;5.85;;;15.10;99.90;;;;;;5051987;28;20219;-65
2022/08/30 04:14:29;;;;;;;8.60;6.38;;;15.00;99.90;;;;;;5049205;28;20226;-66
2022/08/30 04:16:57;;;;;;;7.20;6.25;;;15.00;99.90;;;;;;5051997;28;20721;-67
2022/08/30 04:19:26;;;;;;;7.78;6.00;;;15.00;99.90;;;;;;5052074;28;20669;-68
2022/08/30 04:21:56;;;;;;;7.20;6.15;;;14.90;99.90;;;;;;5050946;28;20832;-69
2022/08/30 04:24:24;;;;;;;7.07;6.07;;;15.00;99.90;;;;;;5051749;28;20204;-68
2022/08/30 04:26:53;;;;;;;7.28;6.18;;;14.90;99.90;;;;;;5051931;28;20192;-68
2022/08/30 04:29:23;;;;;;;9.20;6.45;;;14.90;99.90;;;;;;5053971;28;20194;-68
2022/08/30 04:31:52;;;;;;;9.10;6.90;;;14.80;99.90;;;;;;5051853;28;20606;-67
2022/08/30 04:34:21;;;;;;;8.63;5.70;;;14.80;99.90;;;;;;5051872;28;20203;-67
2022/08/30 04:36:50;;;;;;;8.15;5.50;;;14.80;99.90;;;;;;5051727;28;20697;-67
2022/08/30 04:39:19;;;;;;;7.65;6.40;;;14.80;99.90;;;;;;5051146;28;20196;-66
2022/08/30 04:41:48;;;;;;;8.05;5.97;;;14.80;99.90;;;;;;5051735;28;20211;-66
2022/08/30 04:44:16;;;;;;;10.23;6.05;;;14.80;99.90;;;;;;5055216;28;20196;-65
2022/08/30 04:46:48;;;;;;;7.55;6.22;;;14.80;99.90;;;;;;5053644;28;20211;-70
2022/08/30 04:49:17;;;;;;;11.93;6.45;;;14.80;99.90;;;;;;5075375;28;20194;-69
2022/08/30 04:51:46;;;;;;;9.63;6.57;;;14.80;99.90;;;;;;5075346;28;20219;-68
2022/08/30 04:54:15;;;;;;;8.05;6.15;;;14.80;99.90;;;;;;5055839;28;20202;-68
2022/08/30 04:56:44;;;;;;;9.40;6.35;;;14.70;99.90;;;;;;5054182;28;20671;-68
2022/08/30 04:59:12;;;;;;;11.13;6.70;;;14.70;99.90;;;;;;5055345;28;20192;-68
2022/08/30 05:01:41;;;;;;;8.45;6.47;;;14.80;99.90;;;;;;5054526;28;20736;-68
2022/08/30 05:04:15;;;;;;;9.32;6.55;;;14.80;99.90;;;;;;5054627;28;20196;-68
2022/08/30 05:06:44;;;;;;;8.45;6.45;;;14.80;99.90;;;;;;5053602;28;20211;-67
2022/08/30 05:09:14;;;;;;;8.45;6.70;;;14.80;99.90;;;;;;5015745;28;20202;-67
2022/08/30 05:11:43;;;;;;;7.45;6.60;;;14.80;99.90;;;;;;5075120;28;20215;-67
2022/08/30 05:14:12;;;;;;;10.95;6.95;;;14.90;99.90;;;;;;5075062;28;20203;-66
2022/08/30 05:16:41;;;;;;;8.55;6.43;;;14.90;99.90;;;;;;5074761;28;20194;-74
2022/08/30 05:19:10;;;;;;;11.50;7.15;;;14.90;99.90;;;;;;5054673;28;20215;-68
2022/08/30 05:21:40;;;;;;;7.45;6.35;;;14.90;99.90;;;;;;5053796;28;20799;-70
2022/08/30 05:24:09;;;;;;;7.93;6.53;;;15.00;99.90;;;;;;5054295;28;20670;-68
2022/08/30 05:26:39;;;;;;;8.70;6.57;;;14.90;99.90;;;;;;5054912;28;20195;-68
2022/08/30 05:29:08;;;;;;;9.50;6.95;;;14.90;99.90;;;;;;5055397;28;20561;-67
2022/08/30 05:31:37;;;;;;;9.35;7.30;;;15.00;99.90;;;;;;5053993;28;20223;-67
2022/08/30 05:34:06;;;;;;;8.18;6.38;;;14.90;99.90;;;;;;5054709;28;20207;-67
2022/08/30 05:36:36;;;;;;;10.43;6.55;;;14.90;99.90;;;;;;5054597;28;20188;-66
2022/08/30 05:39:08;;;;;;;9.18;7.88;;;14.90;99.90;;;;;;5054240;28;20235;-68
2022/08/30 05:41:37;;;;;;;10.00;7.03;;;14.90;99.90;;;;;;5054310;28;20729;-67
2022/08/30 05:44:08;;;;;;;11.30;7.35;;;14.90;99.90;;;;;;5053456;28;20199;-67
2022/08/30 05:46:38;;;;;;;9.55;6.95;;;14.90;99.90;;;;;;5053222;28;20554;-66
2022/08/30 05:49:08;;;;;;;11.35;7.47;;;15.00;99.90;;;;;;5054896;28;20196;-66
2022/08/30 05:51:38;;;;;;;11.90;7.55;;;15.00;99.90;;;;;;5054136;28;20207;-67
2022/08/30 05:54:13;;;;;;;10.45;8.93;;;15.00;99.90;;;;;;5055204;28;20212;-65
2022/08/30 05:56:45;;;;;;;13.48;7.28;;;15.10;99.90;;;;;;5053723;28;20216;-68
2022/08/30 05:59:15;;;;;;;13.27;7.57;;;15.10;99.90;;;;;;5054249;28;20216;-68
2022/08/30 06:01:46;;;;;;;15.35;8.05;;;15.10;99.90;;;;;;5054119;28;20217;-69
2022/08/30 06:04:16;;;;;;;13.30;7.95;;;15.10;99.90;;;;;;5053584;28;20195;-69
2022/08/30 06:06:44;;;;;;;11.88;6.97;;;15.20;99.90;;;;;;5053637;28;20195;-69
2022/08/30 06:09:15;;;;;;;11.30;6.85;;;15.20;99.90;;;;;;5060845;28;20203;-66
2022/08/30 06:11:45;;;;;;;9.18;7.70;;;15.30;99.90;;;;;;5063499;28;20212;-68
2022/08/30 06:14:14;;;;;;;9.45;6.93;;;15.40;99.90;;;;;;5053785;28;20211;-67
2022/08/30 06:16:44;;;;;;;8.70;7.78;;;15.40;99.90;;;;;;5053817;28;20195;-67
2022/08/30 06:19:15;;;;;;;10.57;8.98;;;15.40;99.90;;;;;;5053546;28;20258;-66
2022/08/30 06:21:48;;;;;;;10.60;7.72;;;15.50;99.90;;;;;;5052563;28;20584;-67
2022/08/30 06:24:18;;;;;;;18.38;8.43;;;15.50;99.90;;;;;;5052738;28;20666;-68
2022/08/30 06:26:52;;;;;;;13.00;7.68;;;15.60;99.90;;;;;;5052867;28;20191;-67
2022/08/30 06:29:22;;;;;;;17.88;8.48;;;15.60;99.90;;;;;;5050743;28;20570;-65
2022/08/30 06:31:50;;;;;;;11.07;7.50;;;15.80;99.90;;;;;;5053769;28;20219;-67
2022/08/30 06:34:19;;;;;;;11.82;7.65;;;15.80;99.90;;;;;;5050720;28;20211;-66
2022/08/30 06:36:49;;;;;;;10.02;7.35;;;15.90;99.90;;;;;;5053448;28;20579;-69
2022/08/30 06:39:19;;;;;;;15.02;7.72;;;16.00;99.90;;;;;;5053506;28;20234;-67
2022/08/30 06:41:48;;;;;;;13.85;7.47;;;16.20;99.90;;;;;;5049847;28;20234;-68
2022/08/30 06:44:33;;;;;;;15.45;7.65;;;16.30;99.90;;;;;;5052377;28;20191;-68
2022/08/30 06:47:02;;;;;;;11.02;6.95;;;16.50;99.90;;;;;;5053299;28;20195;-68
2022/08/30 06:49:31;;;;;;;11.15;7.18;;;16.70;99.90;;;;;;5053235;28;20196;-70
2022/08/30 06:52:00;;;;;;;12.98;7.30;;;16.80;99.90;;;;;;5051815;28;20215;-71
2022/08/30 06:54:32;;;;;;;10.50;6.50;;;16.80;99.90;;;;;;5051081;28;20196;-68
2022/08/30 06:57:01;;;;;;;9.38;6.53;;;17.00;99.90;;;;;;5053063;28;20196;-68
2022/08/30 06:59:31;;;;;;;8.95;6.63;;;17.20;99.90;;;;;;5051679;28;20589;-69
2022/08/30 07:02:00;;;;;;;9.55;6.75;;;17.20;99.90;;;;;;5052501;28;20228;-68
2022/08/30 07:04:28;;;;;;;8.10;6.28;;;17.30;99.90;;;;;;5052981;28;20192;-69
2022/08/30 07:06:57;;;;;;;8.90;6.38;;;17.40;99.90;;;;;;5052495;28;20693;-68
2022/08/30 07:09:26;;;;;;;7.35;6.25;;;17.40;99.90;;;;;;5052384;28;20195;-67
2022/08/30 07:11:56;;;;;;;9.50;6.13;;;17.50;99.90;;;;;;5052729;28;20580;-67
2022/08/30 07:14:25;;;;;;;14.60;6.20;;;17.60;99.90;;;;;;5052758;28;20203;-69
2022/08/30 07:16:54;;;;;;;14.80;6.85;;;17.70;99.90;;;;;;5051995;28;20566;-68
2022/08/30 07:19:22;;;;;;;11.52;6.00;;;17.80;99.90;;;;;;5051252;28;20227;-68
2022/08/30 07:21:50;;;;;;;9.32;6.18;;;17.90;99.90;;;;;;5052019;28;20710;-67
2022/08/30 07:24:20;;;;;;;11.55;7.65;;;18.00;99.90;;;;;;5051856;28;20203;-67
2022/08/30 07:26:50;;;;;;;10.43;6.50;;;18.20;99.90;;;;;;5052311;28;20194;-67
2022/08/30 07:29:21;;;;;;;10.23;6.10;;;18.30;99.90;;;;;;5051929;28;20214;-66
2022/08/30 07:31:50;;;;;;;9.45;6.18;;;18.50;99.90;;;;;;5052446;28;20215;-66
2022/08/30 07:34:19;;;;;;;9.48;6.10;;;18.60;99.90;;;;;;5052613;28;20200;-70
2022/08/30 07:36:52;;;;;;;11.57;6.90;;;18.90;99.90;;;;;;5052109;28;20184;-66
2022/08/30 07:39:20;;;;;;;12.65;7.15;;;19.10;99.90;;;;;;5051029;28;20222;-67
2022/08/30 07:41:49;;;;;;;12.85;5.85;;;19.20;99.90;;;;;;5052394;28;20207;-67
2022/08/30 07:44:18;;;;;;;11.07;6.38;;;19.30;99.90;;;;;;5050698;28;20204;-67
2022/08/30 07:46:52;;;;;;;13.93;6.68;;;19.40;99.90;;;;;;5060304;28;20210;-69
2022/08/30 07:49:21;;;;;;;10.88;6.22;;;19.50;99.90;;;;;;5072391;28;20199;-68
2022/08/30 07:51:50;;;;;;;11.32;6.43;;;19.60;99.90;;;;;;5068053;28;20226;-67
2022/08/30 07:54:19;;;;;;;8.45;5.88;;;19.90;99.90;;;;;;5051385;28;20554;-66
2022/08/30 07:56:48;;;;;;;10.50;6.22;;;20.00;99.90;;;;;;5052215;28;20210;-66
2022/08/30 07:59:17;;;;;;;7.18;5.90;;;20.10;99.90;;;;;;5052173;28;20211;-67
2022/08/30 08:01:46;;;;;;;10.43;6.60;;;20.20;99.90;;;;;;5051706;28;20756;-68
2022/08/30 08:04:16;;;;;;;9.52;5.72;;;20.20;99.90;;;;;;5052146;28;20543;-67
2022/08/30 08:06:44;;;;;;;7.85;5.40;;;20.30;99.90;;;;;;5051475;28;20192;-67
2022/08/30 08:09:13;;;;;;;9.65;7.05;;;20.40;99.90;;;;;;5050024;28;20578;-67
2022/08/30 08:11:42;;;;;;;10.32;6.80;;;20.50;99.90;;;;;;5051211;28;20219;-68
2022/08/30 08:14:11;;;;;;;10.55;6.50;;;20.50;99.90;;;;;;5050696;28;20234;-69
2022/08/30 08:16:41;;;;;;;9.45;6.60;;;20.70;99.90;;;;;;5052011;28;20198;-65
2022/08/30 08:19:11;;;;;;;10.77;6.65;;;20.80;99.90;;;;;;5055849;28;20211;-68
2022/08/30 08:21:41;;;;;;;12.13;6.63;;;20.80;99.90;;;;;;5055345;28;20223;-67
2022/08/30 08:24:10;;;;;;;10.77;5.70;;;21.00;99.90;;;;;;5064095;28;20199;-67
2022/08/30 08:26:39;;;;;;;9.85;6.25;;;21.20;99.90;;;;;;5059775;28;20196;-67
2022/08/30 08:29:13;;;;;;;11.93;6.28;;;21.40;99.90;;;;;;5056032;28;20203;-68
2022/08/30 08:31:42;;;;;;;10.52;5.72;;;21.50;99.90;;;;;;5055032;28;20235;-68
2022/08/30 08:34:11;;;;;;;10.57;6.50;;;21.60;99.90;;;;;;5056044;28;20211;-69
2022/08/30 08:36:41;;;;;;;8.90;5.97;;;21.70;99.90;;;;;;5055199;28;20200;-68
2022/08/30 08:39:11;;;;;;;9.00;5.82;;;21.80;99.90;;;;;;5055204;28;20212;-69
2022/08/30 08:41:50;;;;;;;9.07;5.82;;;21.90;99.90;;;;;;5055558;28;20705;-68
2022/08/30 08:44:30;;;;;;;9.10;6.03;;;22.00;99.90;;;;;;5055130;28;20203;-66
2022/08/30 08:47:11;;;;;;;8.70;7.07;;;22.20;99.90;;;;;;5054279;28;20199;-69
2022/08/30 08:49:45;;;;;;;10.07;6.75;;;22.30;99.90;;;;;;5054288;28;20215;-67
2022/08/30 08:55:09;;;;;;;11.82;6.90;;;22.60;99.90;;;;;;5054830;28;20191;-68
2022/08/30 08:57:38;;;;;;;9.32;6.45;;;22.60;99.30;;;;;;5055414;28;20260;-68
2022/08/30 09:00:14;;;;;;;10.93;5.85;;;22.70;99.50;;;;;;5053736;28;20223;-68
2022/08/30 09:02:45;;;;;;;14.20;7.15;;;22.80;98.90;;;;;;5055257;28;20183;-68
2022/08/30 09:05:18;;;;;;;9.38;5.65;;;23.00;98.60;;;;;;5055217;28;20187;-67
2022/08/30 09:07:51;;;;;;;8.43;5.45;;;23.20;98.50;;;;;;5054616;28;20200;-67
2022/08/30 09:10:22;;;;;;;9.93;5.40;;;23.30;98.00;;;;;;5054503;28;20545;-68
2022/08/30 09:13:10;;;;;;;9.13;5.60;;;23.40;97.00;;;;;;5054342;28;20580;-71
2022/08/30 09:15:41;;;;;;;7.70;5.43;;;23.60;97.00;;;;;;5055102;28;20191;-67
2022/08/30 09:18:11;;;;;;;11.40;7.05;;;23.80;97.10;;;;;;5054970;28;20650;-67
2022/08/30 09:20:50;;;;;;;6.93;5.22;;;23.90;96.80;;;;;;5053344;28;20231;-68
2022/08/30 09:23:31;;;;;;;8.48;5.47;;;24.00;96.50;;;;;;5054862;28;20200;-68
2022/08/30 09:26:02;;;;;;;8.35;5.00;;;24.20;96.00;;;;;;5052960;28;20199;-69
2022/08/30 09:28:33;;;;;;;9.23;5.28;;;24.10;96.20;;;;;;5052686;28;20556;-67
2022/08/30 09:31:05;;;;;;;7.63;5.25;;;24.10;95.70;;;;;;5053596;28;20224;-68
2022/08/30 09:33:39;;;;;;;7.75;5.35;;;24.20;95.70;;;;;;5053086;28;20202;-67
2022/08/30 09:36:21;;;;;;;8.15;4.35;;;24.30;95.60;;;;;;5052841;28;20215;-66
2022/08/30 09:39:00;;;;;;;9.82;4.40;;;24.50;94.70;;;;;;5055302;28;20207;-68
2022/08/30 09:41:37;;;;;;;7.53;4.75;;;24.60;94.10;;;;;;5054568;28;20301;-68
2022/08/30 09:44:13;;;;;;;9.93;5.25;;;24.80;93.30;;;;;;5056015;28;20199;-66
2022/08/30 09:46:48;;;;;;;8.43;4.18;;;24.80;92.70;;;;;;5056932;28;20195;-67
2022/08/30 09:49:33;;;;;;;8.30;4.43;;;24.80;92.70;;;;;;5054550;28;20547;-67
2022/08/30 09:52:12;;;;;;;7.10;3.90;;;25.00;91.10;;;;;;5055770;28;20598;-68
2022/08/30 09:54:53;;;;;;;9.45;4.25;;;25.20;91.30;;;;;;5053735;28;20572;-67
2022/08/30 09:57:32;;;;;;;6.72;4.50;;;25.20;92.00;;;;;;5054325;28;20192;-68
2022/08/30 10:00:07;;;;;;;8.10;4.40;;;25.30;91.30;;;;;;5054042;28;20214;-68
2022/08/30 10:02:58;;;;;;;6.70;4.10;;;25.40;91.00;;;;;;5052769;28;20208;-67
2022/08/30 10:05:36;;;;;;;6.60;3.88;;;25.40;91.80;;;;;;5052735;28;20581;-67
2022/08/30 10:08:17;;;;;;;6.63;3.65;;;25.50;91.20;;;;;;5053301;28;20200;-67
2022/08/30 10:10:52;;;;;;;6.05;3.90;;;25.60;87.60;;;;;;5054007;28;20587;-67
2022/08/30 10:13:36;;;;;;;4.85;3.30;;;25.70;89.20;;;;;;5053784;28;20199;-67
2022/08/30 10:16:14;;;;;;;7.50;3.90;;;25.80;88.40;;;;;;5072388;28;20206;-65
2022/08/30 10:18:54;;;;;;;6.57;4.00;;;25.90;88.00;;;;;;5064860;28;20210;-67
2022/08/30 10:21:29;;;;;;;6.15;3.50;;;26.10;86.40;;;;;;5052818;28;20239;-68
2022/08/30 10:24:02;;;;;;;5.50;3.13;;;26.40;83.80;;;;;;5054004;28;20195;-69
2022/08/30 10:26:36;;;;;;;7.45;4.93;;;26.30;86.70;;;;;;5053815;28;20631;-68
2022/08/30 10:29:11;;;;;;;7.00;3.45;;;26.40;85.70;;;;;;5051736;28;20199;-68
2022/08/30 10:31:45;;;;;;;6.78;3.20;;;26.60;85.40;;;;;;5052311;28;20241;-68
2022/08/30 10:34:19;;;;;;;9.45;3.30;;;26.70;83.10;;;;;;5052860;28;20195;-67
2022/08/30 10:36:54;;;;;;;5.35;2.90;;;26.70;81.40;;;;;;5052417;28;20557;-66
2022/08/30 10:39:27;;;;;;;5.45;2.72;;;26.70;81.90;;;;;;5052234;28;20200;-66
2022/08/30 10:42:07;;;;;;;5.53;3.20;;;26.80;76.50;;;;;;5053149;28;20223;-69
2022/08/30 10:44:41;;;;;;;4.45;3.03;;;26.90;80.30;;;;;;5053380;28;20190;-67
2022/08/30 10:47:21;;;;;;;6.25;2.92;;;26.90;78.70;;;;;;5052575;28;20199;-71
2022/08/30 10:49:57;;;;;;;6.38;3.65;;;27.00;79.60;;;;;;5054037;28;20611;-72
2022/08/30 10:52:34;;;;;;;6.38;3.58;;;27.20;79.40;;;;;;5051584;28;20717;-68
2022/08/30 10:55:08;;;;;;;6.57;3.40;;;27.20;79.90;;;;;;5052104;28;20566;-68
2022/08/30 10:57:38;;;;;;;4.47;3.00;;;27.30;80.40;;;;;;5052533;28;20199;-68
2022/08/30 11:00:15;;;;;;;6.55;3.58;;;27.40;77.50;;;;;;5051828;28;20234;-67
2022/08/30 11:03:43;;;;;;;6.88;3.20;;;27.50;78.00;;;;;;5051871;28;20238;-68
2022/08/30 11:06:19;;;;;;;8.15;3.25;;;27.70;73.60;;;;;;5053000;28;20626;-66
2022/08/30 11:09:28;;;;;;;4.93;2.92;;;27.80;74.90;;;;;;5052866;28;20195;-67
2022/08/30 11:12:19;;;;;;;5.13;2.88;;;28.10;73.50;;;;;;5044172;28;20215;-67
2022/08/30 11:14:49;;;;;;;5.65;2.90;;;28.20;74.00;;;;;;5052727;28;20646;-68
2022/08/30 11:17:27;;;;;;;5.20;3.03;;;28.50;74.10;;;;;;5051354;28;20206;-68
2022/08/30 11:19:59;;;;;;;4.57;2.80;;;28.50;73.20;;;;;;5052697;28;20187;-68
2022/08/30 11:22:32;;;;;;;5.22;3.05;;;28.70;70.90;;;;;;5053385;28;20292;-68
2022/08/30 11:25:10;;;;;;;5.20;3.03;;;28.70;70.40;;;;;;5052701;28;20190;-68
2022/08/30 11:27:48;;;;;;;4.45;2.80;;;29.00;69.80;;;;;;5052680;28;20211;-68
2022/08/30 11:30:52;;;;;;;3.20;2.47;;;28.90;72.10;;;;;;5050500;28;20191;-68
2022/08/30 11:33:30;;;;;;;3.80;2.83;;;29.00;71.10;;;;;;5051685;28;20202;-68
2022/08/30 11:35:59;;;;;;;4.75;2.90;;;29.00;65.40;;;;;;5051793;28;20194;-69
2022/08/30 11:39:01;;;;;;;5.88;3.00;;;29.10;68.90;;;;;;5052472;28;20195;-67
2022/08/30 11:41:35;;;;;;;5.85;2.75;;;29.30;69.00;;;;;;5052332;28;20211;-68
2022/08/30 11:44:31;;;;;;;4.70;3.00;;;29.30;69.80;;;;;;5052450;28;20587;-68
2022/08/30 11:47:22;;;;;;;5.18;2.80;;;29.60;61.20;;;;;;5048041;28;20200;-68
2022/08/30 11:50:02;;;;;;;3.20;2.25;;;29.60;65.10;;;;;;5051050;28;20207;-68
2022/08/30 11:52:49;;;;;;;7.35;2.67;;;29.80;59.20;;;;;;5058727;28;20195;-67
2022/08/30 11:55:45;;;;;;;3.95;2.38;;;29.90;62.20;;;;;;5052418;28;20191;-68
2022/08/30 11:58:24;;;;;;;4.22;2.53;;;29.90;61.40;;;;;;5052228;28;20681;-67
2022/08/30 12:01:16;;;;;;;3.55;2.53;;;29.70;58.70;;;;;;5051202;28;20698;-67
2022/08/30 12:04:12;;;;;;;2.85;2.28;;;30.00;60.40;;;;;;5051202;28;20567;-68
2022/08/30 12:06:50;;;;;;;3.03;2.42;;;30.10;58.30;;;;;;5052077;28;20202;-67
2022/08/30 12:09:58;;;;;;;4.97;2.40;;;30.10;58.70;;;;;;5052534;28;20212;-68
2022/08/30 12:12:47;;;;;;;4.25;2.85;;;30.10;57.00;;;;;;5052655;28;20226;-69
2022/08/30 12:15:57;;;;;;;3.60;2.75;;;29.90;58.00;;;;;;5051967;28;20573;-68
2022/08/30 12:18:42;;;;;;;3.97;2.72;;;30.10;58.50;;;;;;5051980;28;20192;-68
2022/08/30 12:21:27;;;;;;;4.13;2.53;;;29.90;58.40;;;;;;5051982;28;20572;-68
2022/08/30 12:24:06;;;;;;;4.07;2.65;;;29.80;59.70;;;;;;5055538;28;20219;-68
2022/08/30 12:26:39;;;;;;;3.38;2.42;;;29.80;58.10;;;;;;5051645;28;20206;-69
2022/08/30 12:29:13;;;;;;;3.65;2.40;;;29.50;62.50;;;;;;5051445;28;20192;-68
2022/08/30 12:31:46;;;;;;;3.30;2.58;;;29.40;59.60;;;;;;5051695;28;20242;-66
2022/08/30 12:34:24;;;;;;;4.03;2.45;;;29.40;58.40;;;;;;5052079;28;20203;-69
2022/08/30 12:36:58;;;;;;;3.72;2.95;;;29.20;61.00;;;;;;5050873;28;20183;-67
2022/08/30 12:39:30;;;;;;;4.05;2.95;;;29.30;59.50;;;;;;5051439;28;20203;-67
2022/08/30 12:42:12;;;;;;;3.17;2.70;;;29.30;57.90;;;;;;5051906;28;20216;-69
2022/08/30 12:44:46;;;;;;;5.00;2.65;;;29.40;56.70;;;;;;5050613;28;20199;-68
2022/08/30 12:47:21;;;;;;;4.68;2.47;;;29.20;61.90;;;;;;5050470;28;20565;-69
2022/08/30 12:49:52;;;;;;;4.90;2.75;;;29.30;61.00;;;;;;5050839;28;20589;-69
2022/08/30 12:52:30;;;;;;;3.45;2.58;;;29.00;63.40;;;;;;5052052;28;20231;-69
2022/08/30 12:55:10;;;;;;;3.42;2.50;;;29.00;59.70;;;;;;5051869;28;20180;-68
2022/08/30 12:57:56;;;;;;;6.13;2.85;;;29.00;63.20;;;;;;5051580;28;20548;-67
2022/08/30 13:00:31;;;;;;;5.43;2.83;;;29.10;61.20;;;;;;5049590;28;20270;-68
2022/08/30 13:03:04;;;;;;;6.78;2.40;;;29.10;61.20;;;;;;5051987;28;20227;-68
2022/08/30 13:05:46;;;;;;;7.47;2.75;;;29.30;57.00;;;;;;5053277;28;20195;-69
2022/08/30 13:08:26;;;;;;;6.32;2.72;;;29.30;61.10;;;;;;5054780;28;20569;-69
2022/08/30 13:11:01;;;;;;;4.97;2.50;;;29.30;60.80;;;;;;5055102;28;20211;-69
2022/08/30 13:13:39;;;;;;;4.10;2.83;;;29.20;57.60;;;;;;5070237;28;20203;-69
2022/08/30 13:16:12;;;;;;;3.25;2.58;;;29.20;57.90;;;;;;5055135;28;20180;-69